Time;durP1;ratioP1;P1;durP2;ratioP2;P2;SDS_P1;SDS_P2;PMS_P1;PMS_P2;Temp;Humidity;BMP_temperature;BMP_pressure;BME280_temperature;BME280_humidity;BME280_pressure;Samples;Min_cycle;Max_cycle;Signal;HPM_P1;HPM_P2
2022/05/09 00:00:44;;;;;;;2.97;2.23;;;;;;;9.11;62.02;102023.16;4979073;28;20211;-81
2022/05/09 00:03:10;;;;;;;3.30;2.13;;;;;;;9.11;62.45;102019.63;4978228;28;20539;-82
2022/05/09 00:05:37;;;;;;;4.77;2.53;;;;;;;9.05;61.37;102007.44;4978355;28;20236;-81
2022/05/09 00:08:06;;;;;;;5.40;2.03;;;;;;;8.99;61.97;102019.13;4979072;28;20235;-82
2022/05/09 00:10:32;;;;;;;4.53;2.43;;;;;;;8.97;62.28;102005.03;4978800;28;20204;-82
2022/05/09 00:12:59;;;;;;;4.50;2.37;;;;;;;8.93;62.04;102011.41;4978089;28;20212;-82
2022/05/09 00:15:25;;;;;;;4.57;2.17;;;;;;;8.90;62.15;102007.97;4976627;28;20215;-82
2022/05/09 00:17:52;;;;;;;4.37;2.30;;;;;;;8.82;62.10;102007.34;4976783;28;20224;-81
2022/05/09 00:20:19;;;;;;;4.27;2.27;;;;;;;8.76;62.17;102015.56;4977517;28;20298;-82
2022/05/09 00:22:48;;;;;;;5.17;2.27;;;;;;;8.70;62.80;102016.63;4977373;28;20212;-82
2022/05/09 00:25:18;;;;;;;3.87;2.23;;;;;;;8.65;62.36;102014.09;4977930;28;20585;-81
2022/05/09 00:27:45;;;;;;;3.97;2.00;;;;;;;8.64;62.90;102015.03;4976834;28;20239;-82
2022/05/09 00:30:13;;;;;;;5.37;2.00;;;;;;;8.61;62.94;102019.56;4976736;28;20288;-82
2022/05/09 00:32:39;;;;;;;4.20;2.53;;;;;;;8.58;63.48;102017.03;4977066;28;20208;-81
2022/05/09 00:35:09;;;;;;;7.47;2.50;;;;;;;8.55;63.02;102023.31;4978072;28;20731;-81
2022/05/09 00:37:35;;;;;;;4.87;2.63;;;;;;;8.54;63.23;102018.06;4977454;28;20608;-81
2022/05/09 00:40:03;;;;;;;11.57;2.93;;;;;;;8.54;63.22;102015.41;4977556;28;20209;-82
2022/05/09 00:42:31;;;;;;;6.27;2.60;;;;;;;8.48;63.32;102021.75;4977482;28;20219;-82
2022/05/09 00:44:58;;;;;;;10.40;2.83;;;;;;;8.41;62.80;102025.56;4977455;28;20219;-82
2022/05/09 00:47:24;;;;;;;7.83;3.33;;;;;;;8.31;63.40;102024.94;4977569;28;20236;-82
2022/05/09 00:49:57;;;;;;;8.90;2.63;;;;;;;8.26;63.30;102026.88;4977552;28;20207;-82
2022/05/09 00:52:29;;;;;;;6.93;2.60;;;;;;;8.24;64.56;102030.50;4977685;28;20598;-81
2022/05/09 00:55:00;;;;;;;5.87;2.60;;;;;;;8.23;64.73;102031.44;4977631;28;20243;-82
2022/05/09 00:57:30;;;;;;;7.53;2.10;;;;;;;8.21;64.19;102026.16;4977075;28;20307;-82
2022/05/09 01:00:08;;;;;;;5.03;2.50;;;;;;;8.20;64.00;102027.06;4977671;28;20212;-82
2022/05/09 01:02:35;;;;;;;6.03;2.87;;;;;;;8.15;63.57;102029.00;4977295;28;20192;-82
2022/05/09 01:05:03;;;;;;;7.97;2.50;;;;;;;8.11;63.87;102022.03;4976577;28;20208;-82
2022/05/09 01:07:31;;;;;;;5.13;2.47;;;;;;;8.09;64.36;102029.19;4975624;28;20255;-82
2022/05/09 01:09:58;;;;;;;6.93;3.10;;;;;;;8.08;64.01;102024.78;4975872;28;20215;-82
2022/05/09 01:12:30;;;;;;;5.23;2.30;;;;;;;8.08;64.42;102026.56;4975742;28;20622;-82
2022/05/09 01:15:02;;;;;;;6.47;2.63;;;;;;;8.05;63.84;102030.22;4975711;28;20330;-82
2022/05/09 01:17:29;;;;;;;5.07;2.80;;;;;;;7.97;63.47;102022.47;4975629;28;20275;-82
2022/05/09 01:19:59;;;;;;;9.27;2.60;;;;;;;7.87;63.24;102029.00;4975429;28;20215;-81
2022/05/09 01:22:29;;;;;;;5.40;2.57;;;;;;;7.77;63.64;102031.94;4977023;28;20697;-82
2022/05/09 01:25:02;;;;;;;4.70;2.60;;;;;;;7.72;64.15;102031.19;4976745;28;20205;-82
2022/05/09 01:27:28;;;;;;;5.70;2.57;;;;;;;7.70;64.59;102030.41;4976850;28;20282;-82
2022/05/09 01:30:01;;;;;;;5.30;2.53;;;;;;;7.70;65.41;102031.28;4976800;28;20212;-82
2022/05/09 01:32:34;;;;;;;6.93;2.87;;;;;;;7.68;65.55;102027.81;4977529;28;20196;-82
2022/05/09 01:35:05;;;;;;;4.57;3.33;;;;;;;7.61;65.16;102024.44;4977269;28;20196;-82
2022/05/09 01:37:35;;;;;;;5.40;2.80;;;;;;;7.56;65.21;102023.69;4976272;28;20243;-82
2022/05/09 01:40:02;;;;;;;5.33;2.73;;;;;;;7.51;66.07;102023.00;4976785;28;20693;-81
2022/05/09 01:42:28;;;;;;;7.60;3.00;;;;;;;7.50;66.14;102013.28;4977228;28;20218;-82
2022/05/09 01:44:55;;;;;;;5.13;3.03;;;;;;;7.47;65.87;102018.69;4977276;28;20300;-82
2022/05/09 01:50:06;;;;;;;6.37;2.60;;;;;;;7.42;65.75;102019.72;4975420;28;20661;-82
2022/05/09 01:52:34;;;;;;;5.83;2.70;;;;;;;7.37;66.43;102025.13;4975175;28;20214;-82
2022/05/09 01:55:01;;;;;;;6.00;2.97;;;;;;;7.32;66.54;102021.78;4975523;28;20208;-82
2022/05/09 01:57:27;;;;;;;6.40;2.63;;;;;;;7.28;66.95;102025.41;4974160;28;20228;-82
2022/05/09 01:59:54;;;;;;;4.53;2.80;;;;;;;7.27;66.81;102018.38;4974640;28;20208;-82
2022/05/09 02:02:23;;;;;;;6.47;2.73;;;;;;;7.24;67.10;102021.97;4975315;28;20208;-82
2022/05/09 02:04:49;;;;;;;6.83;3.10;;;;;;;7.22;67.10;102020.28;4976021;28;20280;-82
2022/05/09 02:07:19;;;;;;;7.33;2.83;;;;;;;7.20;67.72;102025.59;4975481;28;20236;-82
2022/05/09 02:09:48;;;;;;;6.70;2.80;;;;;;;7.19;67.77;102023.00;4975597;28;20271;-83
2022/05/09 02:12:15;;;;;;;9.23;3.20;;;;;;;7.16;67.74;102025.75;4975040;28;20210;-83
2022/05/09 02:14:43;;;;;;;7.67;2.80;;;;;;;7.10;67.47;102029.44;4975355;28;20208;-82
2022/05/09 02:17:11;;;;;;;8.00;3.00;;;;;;;7.04;67.45;102034.88;4975286;28;20224;-83
2022/05/09 02:19:38;;;;;;;4.57;2.73;;;;;;;6.97;67.88;102034.19;4975401;28;20533;-83
2022/05/09 02:22:05;;;;;;;6.17;2.93;;;;;;;6.92;68.16;102033.44;4975714;28;20208;-83
2022/05/09 02:24:32;;;;;;;4.27;2.67;;;;;;;6.92;69.11;102036.09;4975501;28;20204;-82
2022/05/09 02:27:00;;;;;;;5.47;3.00;;;;;;;6.93;68.89;102024.59;4975725;28;20607;-83
2022/05/09 02:29:26;;;;;;;5.00;2.93;;;;;;;6.94;68.61;102034.28;4976118;28;20212;-83
2022/05/09 02:31:54;;;;;;;5.93;3.00;;;;;;;6.96;69.29;102021.88;4975822;28;20207;-83
2022/05/09 02:34:21;;;;;;;4.50;2.77;;;;;;;6.97;69.20;102020.97;4976417;28;20216;-82
2022/05/09 02:36:48;;;;;;;4.20;3.03;;;;;;;7.00;69.28;102024.41;4976082;28;20223;-83
2022/05/09 02:39:15;;;;;;;5.70;2.87;;;;;;;7.00;69.72;102027.06;4976318;28;20575;-83
2022/05/09 02:41:42;;;;;;;6.00;2.90;;;;;;;7.00;69.50;102019.97;4976045;28;20216;-83
2022/05/09 02:44:12;;;;;;;4.97;2.70;;;;;;;6.98;69.45;102016.53;4975782;28;20212;-82
2022/05/09 02:46:40;;;;;;;4.80;2.40;;;;;;;6.92;69.22;102014.91;4975980;28;20217;-83
2022/05/09 02:49:07;;;;;;;4.83;2.73;;;;;;;6.90;69.10;102013.19;4975306;28;20279;-83
2022/05/09 02:51:33;;;;;;;5.40;2.67;;;;;;;6.88;69.30;102013.25;4975753;28;20215;-83
2022/05/09 02:54:00;;;;;;;4.30;2.60;;;;;;;6.83;69.10;102016.91;4978159;28;20215;-83
2022/05/09 02:56:27;;;;;;;5.03;2.60;;;;;;;6.78;69.00;102017.06;4978032;28;20211;-83
2022/05/09 02:58:54;;;;;;;4.67;2.37;;;;;;;6.73;69.21;102015.41;4977987;28;20220;-83
2022/05/09 03:01:22;;;;;;;4.90;2.30;;;;;;;6.67;69.08;102024.38;4979061;28;20671;-83
2022/05/09 03:06:35;;;;;;;4.97;2.70;;;;;;;6.59;69.61;102021.94;4978995;28;20311;-83
2022/05/09 03:09:02;;;;;;;3.43;2.70;;;;;;;6.57;69.75;102012.28;4979123;28;20258;-83
2022/05/09 03:11:28;;;;;;;4.97;3.30;;;;;;;6.53;69.49;102010.63;4978786;28;20279;-83
2022/05/09 03:13:55;;;;;;;5.63;2.80;;;;;;;6.47;69.29;102016.06;4978744;28;20298;-83
2022/05/09 03:16:23;;;;;;;3.07;2.30;;;;;;;6.41;69.83;102017.09;4979421;28;20271;-84
2022/05/09 03:18:51;;;;;;;7.40;2.77;;;;;;;6.38;69.47;102016.31;4978635;28;20236;-84
2022/05/09 03:21:18;;;;;;;5.90;2.33;;;;;;;6.34;69.53;102020.78;4978789;28;20251;-83
2022/05/09 03:23:45;;;;;;;3.30;2.60;;;;;;;6.30;69.73;102013.81;4978895;28;20295;-83
2022/05/09 03:26:11;;;;;;;5.27;2.30;;;;;;;6.29;69.98;102012.09;4978484;28;20286;-83
2022/05/09 03:28:38;;;;;;;8.10;2.70;;;;;;;6.30;70.46;102020.88;4978001;28;20234;-83
2022/05/09 03:31:05;;;;;;;5.30;3.17;;;;;;;6.30;70.32;102018.25;4978187;28;20204;-83
2022/05/09 03:33:32;;;;;;;6.87;3.03;;;;;;;6.29;70.41;102020.03;4977892;28;20204;-83
2022/05/09 03:36:01;;;;;;;7.93;3.27;;;;;;;6.30;70.75;102016.47;4977863;28;20675;-83
2022/05/09 03:38:28;;;;;;;6.03;3.03;;;;;;;6.30;70.77;102021.75;4977589;28;20236;-83
2022/05/09 03:40:55;;;;;;;4.73;2.60;;;;;;;6.29;70.66;102014.72;4978253;28;20200;-83
2022/05/09 03:43:21;;;;;;;6.57;3.07;;;;;;;6.27;70.81;102009.47;4979471;28;20215;-83
2022/05/09 03:45:52;;;;;;;8.90;3.33;;;;;;;6.28;70.96;102020.94;4989728;28;20213;-83
2022/05/09 03:48:19;;;;;;;6.43;2.60;;;;;;;6.23;71.00;102013.13;5016691;28;20913;-82
2022/05/09 03:50:47;;;;;;;4.53;2.57;;;;;;;6.17;70.52;102015.91;5016305;28;20205;-82
2022/05/09 03:53:14;;;;;;;4.73;2.80;;;;;;;6.09;70.59;102017.84;5017160;28;20811;-82
2022/05/09 03:55:40;;;;;;;5.17;3.00;;;;;;;6.02;70.73;102016.25;5017124;28;20211;-82
2022/05/09 03:58:07;;;;;;;5.20;2.80;;;;;;;5.99;71.00;102018.09;5016175;28;20223;-83
2022/05/09 04:00:35;;;;;;;4.33;3.00;;;;;;;5.99;71.39;102012.81;4997404;28;20270;-83
2022/05/09 04:03:02;;;;;;;10.13;3.30;;;;;;;5.97;71.59;102012.84;4996642;28;20713;-80
2022/05/09 04:05:30;;;;;;;3.40;2.60;;;;;;;5.96;71.67;102016.38;4990225;28;20212;-80
2022/05/09 04:07:59;;;;;;;5.40;3.10;;;;;;;5.92;71.34;102012.94;4986608;28;20230;-81
2022/05/09 04:10:28;;;;;;;4.63;2.93;;;;;;;5.89;71.72;102010.38;4996068;28;20746;-80
2022/05/09 04:12:55;;;;;;;4.63;3.00;;;;;;;5.85;71.61;102006.03;4997221;28;20204;-81
2022/05/09 04:18:02;;;;;;;6.30;2.80;;;;;;;5.85;72.18;102013.09;4966798;28;20594;-80
2022/05/09 04:20:29;;;;;;;4.87;3.00;;;;;;;5.87;72.74;102014.81;4996461;28;20218;-80
2022/05/09 04:23:00;;;;;;;7.37;3.27;;;;;;;5.88;72.92;102015.66;4996598;28;20211;-81
2022/05/09 04:25:28;;;;;;;5.13;3.17;;;;;;;5.88;72.98;102020.97;4996849;28;20242;-81
2022/05/09 04:27:57;;;;;;;5.50;2.57;;;;;;;5.89;73.12;102013.03;4996752;28;20308;-81
2022/05/09 04:30:23;;;;;;;5.97;3.00;;;;;;;5.92;73.46;102020.00;4990992;28;20201;-81
2022/05/09 04:32:50;;;;;;;3.80;3.40;;;;;;;5.93;73.39;102019.09;4992574;28;20211;-81
2022/05/09 04:35:20;;;;;;;6.43;3.37;;;;;;;5.96;73.47;102024.31;4996311;28;20207;-81
2022/05/09 04:37:47;;;;;;;4.73;2.83;;;;;;;5.99;74.00;102026.91;4996118;28;20301;-81
2022/05/09 04:40:16;;;;;;;8.73;3.23;;;;;;;6.03;73.88;102019.78;4995980;28;20286;-81
2022/05/09 04:42:43;;;;;;;5.73;3.10;;;;;;;6.06;74.19;102019.72;4996328;28;20690;-81
2022/05/09 04:45:13;;;;;;;6.20;3.10;;;;;;;6.09;74.22;102019.66;4993140;28;20268;-81
2022/05/09 04:47:40;;;;;;;8.07;4.10;;;;;;;6.11;74.34;102023.97;4976269;28;20232;-81
2022/05/09 04:50:09;;;;;;;7.53;3.63;;;;;;;6.14;74.69;102029.19;4995333;28;20207;-80
2022/05/09 04:52:35;;;;;;;8.03;3.50;;;;;;;6.18;74.87;102024.72;4995828;28;20214;-81
2022/05/09 04:55:02;;;;;;;7.20;3.00;;;;;;;6.19;75.01;102027.31;4978067;28;20214;-81
2022/05/09 04:57:30;;;;;;;7.57;3.57;;;;;;;6.21;75.10;102025.50;4996574;28;20242;-80
2022/05/09 04:59:57;;;;;;;6.87;4.07;;;;;;;6.25;75.26;102027.19;4996881;28;20234;-81
2022/05/09 05:02:23;;;;;;;5.47;3.77;;;;;;;6.31;75.38;102033.22;4996173;28;20221;-81
2022/05/09 05:04:50;;;;;;;7.00;3.20;;;;;;;6.34;75.52;102026.09;4995713;28;20215;-83
2022/05/09 05:07:16;;;;;;;6.97;4.23;;;;;;;6.40;75.96;102025.06;4995574;28;20777;-81
2022/05/09 05:09:43;;;;;;;7.67;3.63;;;;;;;6.46;75.96;102022.25;4996847;28;20229;-80
2022/05/09 05:12:10;;;;;;;8.80;4.30;;;;;;;6.53;76.20;102027.38;4994953;28;20204;-81
2022/05/09 05:14:38;;;;;;;6.27;3.40;;;;;;;6.58;76.19;102021.97;4995343;28;20211;-81
2022/05/09 05:17:06;;;;;;;5.53;3.60;;;;;;;6.68;76.44;102030.53;4996300;28;20243;-81
2022/05/09 05:19:35;;;;;;;10.10;4.07;;;;;;;6.74;76.42;102028.63;4994842;28;20211;-81
2022/05/09 05:22:04;;;;;;;10.73;3.90;;;;;;;6.81;76.21;102037.25;4995817;28;20699;-81
2022/05/09 05:24:34;;;;;;;7.13;3.87;;;;;;;6.87;76.27;102037.97;4995696;28;20563;-80
2022/05/09 05:27:01;;;;;;;8.67;3.70;;;;;;;6.95;76.28;102038.66;4995330;28;20203;-81
2022/05/09 05:29:28;;;;;;;7.20;3.80;;;;;;;7.03;76.09;102038.44;4995377;28;20211;-81
2022/05/09 05:31:56;;;;;;;6.70;4.23;;;;;;;7.12;76.00;102032.03;4995912;28;20208;-81
2022/05/09 05:34:22;;;;;;;7.43;3.63;;;;;;;7.22;75.87;102030.88;4990167;28;20200;-79
2022/05/09 05:36:50;;;;;;;6.13;3.60;;;;;;;7.34;76.38;102037.63;4975713;28;20227;-79
2022/05/09 05:39:17;;;;;;;7.10;4.00;;;;;;;7.48;76.44;102040.75;4975430;28;20263;-79
2022/05/09 05:41:43;;;;;;;8.07;4.47;;;;;;;7.63;75.66;102038.53;4976015;28;20208;-80
2022/05/09 05:44:11;;;;;;;6.47;4.07;;;;;;;7.79;75.88;102040.72;4975938;28;20392;-79
2022/05/09 05:46:39;;;;;;;9.07;3.83;;;;;;;7.94;74.71;102038.47;4975961;28;20680;-79
2022/05/09 05:49:07;;;;;;;9.27;4.37;;;;;;;8.12;74.27;102036.19;4996305;28;20235;-80
2022/05/09 05:51:33;;;;;;;7.40;3.73;;;;;;;8.29;73.79;102037.38;5009680;28;20229;-80
2022/05/09 05:54:00;;;;;;;8.20;3.93;;;;;;;8.46;73.64;102028.91;4996959;28;20207;-80
2022/05/09 05:56:27;;;;;;;12.13;4.53;;;;;;;8.62;72.46;102030.13;5010836;28;20217;-80
2022/05/09 05:58:53;;;;;;;7.37;3.87;;;;;;;8.80;72.15;102038.41;5015003;28;20226;-80
2022/05/09 06:01:22;;;;;;;6.47;3.57;;;;;;;8.96;71.37;102037.81;4990828;28;20652;-80
2022/05/09 06:03:49;;;;;;;8.00;4.40;;;;;;;9.13;70.36;102028.44;4981499;28;20310;-80
2022/05/09 06:06:17;;;;;;;7.13;3.63;;;;;;;9.30;69.86;102020.72;4992364;28;20218;-80
2022/05/09 06:08:45;;;;;;;7.00;3.33;;;;;;;9.47;69.42;102026.28;4993861;28;20249;-80
2022/05/09 06:11:13;;;;;;;6.80;3.70;;;;;;;9.65;68.34;102022.94;4994406;28;20204;-80
2022/05/09 06:13:39;;;;;;;6.47;3.50;;;;;;;9.83;67.88;102028.50;5001913;28;20208;-80
2022/05/09 06:16:06;;;;;;;9.00;3.30;;;;;;;9.98;66.41;102025.22;4995389;28;20199;-80
2022/05/09 06:18:33;;;;;;;6.27;3.20;;;;;;;10.13;65.82;102021.97;4984066;28;20224;-80
2022/05/09 06:20:59;;;;;;;7.67;3.90;;;;;;;10.28;65.11;102026.69;4988142;28;20217;-80
2022/05/09 06:23:27;;;;;;;6.93;3.10;;;;;;;10.44;64.59;102022.47;4994966;28;20585;-80
2022/05/09 06:25:54;;;;;;;5.87;3.30;;;;;;;10.62;63.94;102018.19;5001814;28;20238;-80
2022/05/09 06:28:22;;;;;;;7.17;3.67;;;;;;;10.80;63.55;102021.88;5012460;28;20691;-80
2022/05/09 06:30:48;;;;;;;8.33;3.87;;;;;;;10.95;63.18;102015.88;4998836;28;20211;-80
2022/05/09 06:33:22;;;;;;;7.20;3.37;;;;;;;11.11;62.61;102008.94;4999019;28;20211;-80
2022/05/09 06:35:49;;;;;;;9.10;3.93;;;;;;;11.28;62.16;102010.03;4999371;28;20234;-80
2022/05/09 06:38:18;;;;;;;10.20;5.10;;;;;;;11.40;61.49;102010.34;4998365;28;20235;-80
2022/05/09 06:40:46;;;;;;;11.17;3.97;;;;;;;11.54;60.96;102023.03;5003055;28;20218;-80
2022/05/09 06:43:13;;;;;;;8.13;3.63;;;;;;;11.64;60.57;102023.50;5005812;28;20211;-80
2022/05/09 06:45:40;;;;;;;7.47;3.53;;;;;;;11.76;59.91;102013.16;5006403;28;20221;-81
2022/05/09 06:48:08;;;;;;;5.17;3.70;;;;;;;11.89;59.85;102020.59;5005369;28;20588;-80
2022/05/09 06:50:36;;;;;;;8.63;3.67;;;;;;;12.02;59.72;102019.06;5001822;28;20647;-80
2022/05/09 06:53:03;;;;;;;7.23;3.63;;;;;;;12.20;59.52;102025.31;5005030;28;20218;-80
2022/05/09 06:55:30;;;;;;;9.43;3.83;;;;;;;12.35;59.36;102027.28;5011813;28;20215;-80
2022/05/09 06:57:58;;;;;;;6.07;3.80;;;;;;;12.56;59.15;102025.31;4987101;28;20223;-80
2022/05/09 07:00:26;;;;;;;8.30;4.30;;;;;;;12.72;58.48;102026.31;4978483;28;20300;-80
2022/05/09 07:02:53;;;;;;;10.03;3.93;;;;;;;12.88;58.09;102015.69;5003280;28;20203;-80
2022/05/09 07:05:22;;;;;;;7.30;3.10;;;;;;;13.09;57.93;102014.56;5006489;28;20208;-80
2022/05/09 07:07:48;;;;;;;10.70;3.50;;;;;;;13.26;57.09;102022.59;5017158;28;20243;-80
2022/05/09 07:10:16;;;;;;;5.40;3.33;;;;;;;13.43;56.71;102021.75;5005680;28;20297;-80
2022/05/09 07:12:45;;;;;;;8.77;3.40;;;;;;;13.59;56.16;102022.63;5002993;28;20715;-80
2022/05/09 07:15:15;;;;;;;5.80;3.37;;;;;;;13.79;55.58;102016.19;5017652;28;20210;-80
2022/05/09 07:17:47;;;;;;;6.10;3.37;;;;;;;13.97;55.42;102020.53;5015317;28;20594;-81
2022/05/09 07:20:15;;;;;;;7.60;3.47;;;;;;;14.17;55.00;102019.38;5005540;28;20211;-80
2022/05/09 07:22:42;;;;;;;7.03;3.60;;;;;;;14.35;54.18;102023.69;5007418;28;20203;-81
2022/05/09 07:25:11;;;;;;;5.97;2.93;;;;;;;14.49;53.32;102012.25;5006874;28;20220;-80
2022/05/09 07:27:38;;;;;;;9.47;3.03;;;;;;;14.62;52.52;102009.69;5013439;28;20233;-80
2022/05/09 07:30:05;;;;;;;7.83;2.87;;;;;;;14.75;52.13;102016.94;4996904;28;20211;-80
2022/05/09 07:32:33;;;;;;;9.37;2.77;;;;;;;14.92;52.21;102007.88;5002484;28;20218;-81
2022/05/09 07:35:00;;;;;;;7.70;3.40;;;;;;;15.12;51.26;102006.66;5003767;28;20212;-80
2022/05/09 07:37:26;;;;;;;3.83;2.33;;;;;;;15.27;50.67;102013.78;5006998;28;20259;-81
2022/05/09 07:39:53;;;;;;;8.23;2.80;;;;;;;15.40;50.33;102011.22;5004087;28;20211;-80
2022/05/09 07:42:23;;;;;;;7.53;3.17;;;;;;;15.53;50.09;102014.88;5003542;28;20212;-80
2022/05/09 07:44:52;;;;;;;8.50;3.20;;;;;;;15.67;49.32;102014.03;4997952;28;20212;-80
2022/05/09 07:47:18;;;;;;;5.50;2.80;;;;;;;15.80;49.47;102018.53;4998919;28;20324;-80
2022/05/09 07:49:47;;;;;;;6.53;3.03;;;;;;;15.94;48.99;102015.81;5011403;28;20229;-80
2022/05/09 07:52:14;;;;;;;6.60;2.87;;;;;;;16.11;48.78;102014.75;5000693;28;20248;-80
2022/05/09 07:54:41;;;;;;;5.67;2.53;;;;;;;16.27;47.81;102019.97;4995160;28;20630;-80
2022/05/09 07:57:08;;;;;;;8.50;2.93;;;;;;;16.41;47.46;102033.38;4993312;28;20637;-79
2022/05/09 07:59:34;;;;;;;4.63;2.63;;;;;;;16.53;47.31;102023.63;5009173;28;20647;-80
2022/05/09 08:02:01;;;;;;;6.17;2.60;;;;;;;16.64;46.71;102016.63;5004360;28;20257;-80
2022/05/09 08:04:28;;;;;;;5.73;2.70;;;;;;;16.77;46.54;102018.47;5008235;28;20213;-83
2022/05/09 08:06:57;;;;;;;10.37;3.07;;;;;;;16.88;46.20;102018.59;4996039;28;20296;-81
2022/05/09 08:09:23;;;;;;;6.10;2.80;;;;;;;16.96;45.43;102018.94;4994481;28;20235;-81
2022/05/09 08:11:50;;;;;;;4.43;2.10;;;;;;;17.06;44.92;102009.25;4997770;28;20213;-82
2022/05/09 08:14:18;;;;;;;8.20;2.63;;;;;;;17.17;44.63;102012.09;4998445;28;20262;-82
2022/05/09 08:16:45;;;;;;;4.57;2.30;;;;;;;17.32;44.15;102011.00;4993204;28;20211;-82
2022/05/09 08:19:12;;;;;;;5.17;2.17;;;;;;;17.43;43.91;102015.63;4994601;28;20660;-83
2022/05/09 08:21:39;;;;;;;5.80;2.13;;;;;;;17.56;43.41;102007.53;5004265;28;20221;-83
2022/05/09 08:24:09;;;;;;;4.37;2.23;;;;;;;17.68;43.21;102006.72;5002061;28;20289;-82
2022/05/09 08:26:36;;;;;;;5.40;2.30;;;;;;;17.82;43.17;102009.28;5003647;28;20214;-83
2022/05/09 08:29:04;;;;;;;4.93;2.40;;;;;;;17.97;42.71;102012.69;5003586;28;20240;-83
2022/05/09 08:31:31;;;;;;;5.53;2.23;;;;;;;18.09;42.21;102006.41;5005990;28;20804;-82
2022/05/09 08:33:59;;;;;;;6.90;2.43;;;;;;;18.21;42.34;102002.81;5002053;28;20206;-82
2022/05/09 08:39:13;;;;;;;6.07;2.60;;;;;;;18.54;41.81;102006.66;5001057;28;20318;-83
2022/05/09 08:41:52;;;;;;;8.30;2.17;;;;;;;18.69;41.93;101998.28;4998609;28;20231;-82
2022/05/09 08:44:38;;;;;;;7.43;2.40;;;;;;;18.82;41.16;102000.03;5004206;28;20406;-83
2022/05/09 08:47:23;;;;;;;6.40;2.40;;;;;;;18.99;40.60;101994.19;4996647;28;20205;-83
2022/05/09 08:50:13;;;;;;;4.87;2.10;;;;;;;19.12;40.20;101991.44;5001561;28;20226;-82
2022/05/09 08:52:45;;;;;;;4.80;2.07;;;;;;;19.19;38.79;101998.91;5004690;28;20671;-81
2022/05/09 08:55:14;;;;;;;5.23;2.43;;;;;;;19.26;38.86;101993.91;5005966;28;20210;-84
2022/05/09 08:57:46;;;;;;;7.50;2.70;;;;;;;19.36;38.42;101995.75;4996509;28;20600;-83
2022/05/09 09:00:15;;;;;;;4.10;1.90;;;;;;;19.46;37.79;101995.03;4998798;28;20919;-81
2022/05/09 09:02:46;;;;;;;6.60;2.30;;;;;;;19.57;37.87;101992.34;4981984;28;20598;-82
2022/05/09 09:05:16;;;;;;;6.87;2.57;;;;;;;19.72;37.64;101991.97;4991708;28;20831;-81
2022/05/09 09:07:53;;;;;;;4.17;1.80;;;;;;;19.79;37.25;101986.09;4994931;28;20232;-81
2022/05/09 09:10:30;;;;;;;6.40;2.17;;;;;;;19.87;36.80;101987.19;4995677;28;20198;-83
2022/05/09 09:13:10;;;;;;;4.67;1.90;;;;;;;19.95;36.94;101987.41;4994236;28;20198;-82
2022/05/09 09:15:47;;;;;;;5.07;1.80;;;;;;;20.08;37.03;101987.25;4994417;28;20224;-82
2022/05/09 09:18:29;;;;;;;5.23;2.23;;;;;;;20.21;37.02;101987.13;4985851;28;20270;-82
2022/05/09 09:21:00;;;;;;;7.47;2.73;;;;;;;20.31;36.94;101988.94;5003241;28;20205;-82
2022/05/09 09:23:48;;;;;;;3.70;2.23;;;;;;;20.41;36.76;101978.25;5002287;28;20220;-83
2022/05/09 09:26:28;;;;;;;4.27;2.00;;;;;;;20.51;36.48;101978.31;5003274;28;20205;-83
2022/05/09 09:29:00;;;;;;;5.57;2.00;;;;;;;20.57;35.53;101980.53;4999235;28;20802;-82
2022/05/09 09:31:31;;;;;;;7.00;2.20;;;;;;;20.63;35.68;101970.00;4996951;28;20210;-81
2022/05/09 09:34:03;;;;;;;6.10;2.43;;;;;;;20.71;35.23;101967.53;4991649;28;20563;-82
2022/05/09 09:36:35;;;;;;;4.27;2.30;;;;;;;20.78;34.63;101951.63;4992226;28;20206;-83
2022/05/09 09:39:10;;;;;;;5.67;2.10;;;;;;;20.85;34.22;101957.34;4992893;28;20239;-83
2022/05/09 09:41:39;;;;;;;4.07;1.90;;;;;;;20.90;34.08;101950.56;4995859;28;20216;-82
2022/05/09 09:44:08;;;;;;;10.63;2.20;;;;;;;20.98;33.75;101956.16;4993377;28;20210;-82
2022/05/09 09:46:59;;;;;;;5.17;2.10;;;;;;;21.08;34.17;101946.25;4992503;28;20229;-82
2022/05/09 09:49:25;;;;;;;3.53;2.10;;;;;;;21.15;33.41;101944.72;4986291;28;20233;-82
2022/05/09 09:51:52;;;;;;;6.80;1.85;;;;;;;21.20;33.15;101941.63;4992065;28;20214;-83
2022/05/09 09:54:21;;;;;;;5.43;2.17;;;;;;;21.26;32.67;101938.41;4994467;28;20204;-82
2022/05/09 09:56:49;;;;;;;2.97;2.00;;;;;;;21.31;32.84;101935.28;4996468;28;20208;-82
2022/05/09 09:59:21;;;;;;;5.70;2.05;;;;;;;21.36;32.17;101933.88;4992461;28;20202;-82
2022/05/09 10:02:02;;;;;;;4.32;1.70;;;;;;;21.36;32.83;101933.88;4996071;28;20199;-82
2022/05/09 10:04:30;;;;;;;4.87;1.90;;;;;;;21.39;32.25;101938.16;5005695;28;20208;-82
2022/05/09 10:06:59;;;;;;;4.57;2.10;;;;;;;21.44;32.19;101934.06;5003766;28;20265;-83
2022/05/09 10:09:27;;;;;;;4.20;1.75;;;;;;;21.56;32.17;101928.53;4999848;28;20226;-83
2022/05/09 10:12:14;;;;;;;7.38;2.40;;;;;;;21.70;31.77;101920.88;5003614;28;20214;-82
2022/05/09 10:14:40;;;;;;;4.57;2.00;;;;;;;21.87;31.65;101922.03;5005473;28;20290;-82
2022/05/09 10:17:16;;;;;;;4.18;1.95;;;;;;;21.97;31.54;101917.50;5005882;28;20272;-83
2022/05/09 10:19:43;;;;;;;4.80;1.93;;;;;;;22.03;31.43;101914.28;4996926;28;20584;-83
2022/05/09 10:25:06;;;;;;;4.72;1.90;;;;;;;22.14;31.21;101908.72;4985845;28;20254;-82
2022/05/09 10:27:36;;;;;;;6.00;2.03;;;;;;;22.21;31.43;101902.72;4996117;28;20237;-83
2022/05/09 10:30:07;;;;;;;5.75;2.15;;;;;;;22.25;31.44;101905.00;5000955;28;20233;-84
2022/05/09 10:32:49;;;;;;;3.97;1.70;;;;;;;22.31;31.49;101898.16;4999521;28;20200;-82
2022/05/09 10:35:22;;;;;;;4.53;1.98;;;;;;;22.40;31.46;101891.84;4987458;28;20203;-82
2022/05/09 10:37:54;;;;;;;6.03;2.70;;;;;;;22.48;31.58;101887.41;4989690;28;20234;-83
2022/05/09 10:40:25;;;;;;;4.88;2.10;;;;;;;22.57;31.55;101883.00;4990900;28;20195;-83
2022/05/09 10:43:01;;;;;;;2.78;1.67;;;;;;;22.60;31.66;101882.69;4975954;28;20212;-82
2022/05/09 10:45:32;;;;;;;4.15;2.28;;;;;;;22.65;30.70;101883.09;4980215;28;20203;-83
2022/05/09 10:48:07;;;;;;;3.85;1.83;;;;;;;22.69;30.95;101876.38;4996512;28;20313;-83
2022/05/09 10:50:40;;;;;;;4.40;2.10;;;;;;;22.71;30.64;101877.09;5004341;28;20455;-82
2022/05/09 10:53:13;;;;;;;5.00;2.00;;;;;;;22.72;31.03;101873.38;4995321;28;20689;-82
2022/05/09 10:55:43;;;;;;;5.88;2.25;;;;;;;22.84;31.21;101874.94;5004368;28;20223;-82
2022/05/09 10:58:20;;;;;;;4.78;1.90;;;;;;;22.89;31.11;101871.81;4999397;28;20230;-83
2022/05/09 11:00:51;;;;;;;5.40;2.22;;;;;;;22.93;31.17;101862.31;4996456;28;20816;-82
2022/05/09 11:03:26;;;;;;;3.30;1.70;;;;;;;23.00;31.27;101859.88;5001819;28;20200;-82
2022/05/09 11:06:17;;;;;;;4.95;1.90;;;;;;;23.04;31.21;101853.16;5003272;28;20557;-82
2022/05/09 11:09:00;;;;;;;4.22;1.92;;;;;;;23.08;31.09;101851.84;4995488;28;20253;-82
2022/05/09 11:11:34;;;;;;;2.80;1.40;;;;;;;23.11;31.50;101854.28;4994823;28;20342;-81
2022/05/09 11:14:10;;;;;;;5.43;2.25;;;;;;;23.16;31.40;101847.38;4997535;28;20290;-82
2022/05/09 11:16:52;;;;;;;2.63;1.60;;;;;;;23.20;31.53;101846.06;4998763;28;20203;-83
2022/05/09 11:19:30;;;;;;;4.63;1.65;;;;;;;23.27;31.37;101835.47;5005353;28;20195;-81
2022/05/09 11:22:04;;;;;;;5.47;1.90;;;;;;;23.30;31.24;101837.84;4999516;28;20223;-83
2022/05/09 11:24:45;;;;;;;8.45;1.95;;;;;;;23.36;31.28;101839.97;4997429;28;20199;-83
2022/05/09 11:27:26;;;;;;;3.58;1.80;;;;;;;23.37;30.64;101833.53;4994158;28;20255;-82
2022/05/09 11:30:08;;;;;;;3.85;1.83;;;;;;;23.37;30.75;101836.25;4996368;28;20222;-83
2022/05/09 11:32:41;;;;;;;4.88;1.92;;;;;;;23.38;30.92;101829.81;5001701;28;20220;-82
2022/05/09 11:35:27;;;;;;;5.03;1.77;;;;;;;23.40;31.17;101827.81;4993076;28;20212;-83
2022/05/09 11:38:22;;;;;;;4.13;1.85;;;;;;;23.47;31.55;101818.00;4992897;28;20227;-81
2022/05/09 11:40:58;;;;;;;5.30;1.92;;;;;;;23.51;31.14;101816.75;4993185;28;20245;-83
2022/05/09 11:43:42;;;;;;;4.57;1.67;;;;;;;23.55;31.38;101809.13;4997515;28;20207;-83
2022/05/09 11:46:22;;;;;;;4.43;1.38;;;;;;;23.56;31.98;101810.84;5002236;28;20200;-83
2022/05/09 11:49:03;;;;;;;4.95;1.90;;;;;;;23.57;31.57;101811.72;5002007;28;20230;-83
2022/05/09 11:51:42;;;;;;;5.03;1.70;;;;;;;23.58;31.87;101811.56;4996780;28;20203;-82
2022/05/09 11:54:14;;;;;;;4.05;1.63;;;;;;;23.56;31.30;101794.53;5000842;28;20203;-83